createdAt,value
2023-01-11T00:00:21.247Z,0.00
2023-01-11T00:01:20.932Z,0.00
2023-01-11T00:02:20.920Z,0.00
2023-01-11T00:05:38.048Z,0.00
2023-01-11T00:06:38.006Z,0.00
2023-01-11T00:07:37.849Z,0.00
2023-01-11T00:08:37.651Z,0.00
2023-01-11T00:09:38.494Z,0.00
2023-01-11T00:10:38.198Z,0.00
2023-01-11T00:11:37.460Z,0.00
2023-01-11T00:12:37.496Z,0.00
2023-01-11T00:13:37.154Z,0.00
2023-01-11T00:14:37.191Z,0.00
2023-01-11T00:15:37.396Z,0.00
2023-01-11T00:16:37.194Z,0.00
2023-01-11T00:17:37.263Z,0.00
2023-01-11T00:18:37.305Z,0.00
2023-01-11T00:24:55.402Z,0.00
2023-01-11T00:25:55.695Z,0.00
2023-01-11T00:26:54.884Z,0.00
2023-01-11T00:27:55.013Z,0.00
2023-01-11T00:28:54.833Z,0.00
2023-01-11T00:29:54.828Z,0.00
2023-01-11T00:30:54.947Z,0.00
2023-01-11T00:31:54.818Z,0.00
2023-01-11T00:32:54.843Z,0.00
2023-01-11T00:33:54.833Z,0.00
2023-01-11T00:34:54.821Z,0.00
2023-01-11T00:35:54.840Z,0.00
2023-01-11T00:36:54.891Z,0.00
2023-01-11T00:37:54.778Z,0.00
2023-01-11T00:38:54.780Z,0.00
2023-01-11T00:39:54.805Z,0.00
2023-01-11T00:40:54.777Z,0.00
2023-01-11T00:41:54.791Z,0.00
2023-01-11T00:42:54.800Z,0.00
2023-01-11T00:43:54.853Z,0.00
2023-01-11T00:44:54.798Z,0.00
2023-01-11T00:45:54.790Z,0.00
2023-01-11T00:46:54.739Z,0.00
2023-01-11T00:47:54.755Z,0.00
2023-01-11T00:48:54.771Z,0.00
2023-01-11T00:49:54.742Z,0.00
2023-01-11T00:50:54.781Z,0.00
2023-01-11T00:51:54.781Z,0.00
2023-01-11T00:52:54.752Z,0.00
2023-01-11T00:53:54.753Z,0.00
2023-01-11T00:54:54.736Z,0.00
2023-01-11T00:56:03.052Z,0.00
2023-01-11T00:56:54.697Z,0.00
2023-01-11T00:57:54.701Z,0.00
2023-01-11T00:58:54.708Z,0.00
2023-01-11T00:59:54.690Z,0.00
2023-01-11T01:00:54.681Z,0.00
2023-01-11T01:01:54.676Z,0.00
2023-01-11T01:02:54.825Z,0.00
2023-01-11T01:03:54.670Z,0.00
2023-01-11T01:04:54.672Z,0.00
2023-01-11T01:05:54.658Z,0.00
2023-01-11T01:06:54.686Z,0.00
2023-01-11T01:07:54.655Z,0.00
2023-01-11T01:08:54.644Z,0.00
2023-01-11T01:09:54.661Z,0.00
2023-01-11T01:10:54.635Z,0.00
2023-01-11T01:11:54.636Z,0.00
2023-01-11T01:12:54.628Z,0.00
2023-01-11T01:13:54.618Z,0.00
2023-01-11T01:14:54.652Z,0.00
2023-01-11T01:15:54.672Z,0.00
2023-01-11T01:16:54.626Z,0.00
2023-01-11T01:17:54.601Z,0.00
2023-01-11T01:18:54.609Z,0.00
2023-01-11T01:19:54.600Z,0.00
2023-01-11T01:20:54.624Z,0.00
2023-01-11T01:21:54.598Z,0.00
2023-01-11T01:22:54.576Z,0.00
2023-01-11T01:23:54.578Z,0.00
2023-01-11T01:24:54.588Z,0.00
2023-01-11T01:25:54.578Z,0.00
2023-01-11T01:26:54.584Z,0.00
2023-01-11T01:27:54.563Z,0.00
2023-01-11T01:28:54.562Z,0.00
2023-01-11T01:29:54.580Z,0.00
2023-01-11T01:30:54.574Z,0.00
2023-01-11T01:31:54.571Z,0.00
2023-01-11T01:32:54.562Z,0.00
2023-01-11T01:33:54.557Z,0.00
2023-01-11T01:34:54.525Z,0.00
2023-01-11T01:35:54.543Z,0.00
2023-01-11T01:36:54.533Z,0.00
2023-01-11T01:37:54.550Z,0.00
2023-01-11T01:38:54.526Z,0.00
2023-01-11T01:39:54.558Z,0.00
2023-01-11T01:40:54.503Z,0.00
2023-01-11T01:41:54.525Z,0.00
2023-01-11T01:42:54.511Z,0.00
2023-01-11T01:43:54.502Z,0.00
2023-01-11T01:44:54.506Z,0.00
2023-01-11T01:45:54.500Z,0.00
2023-01-11T01:46:54.478Z,0.00
2023-01-11T01:47:54.477Z,0.00
2023-01-11T01:48:54.529Z,0.00
2023-01-11T01:49:54.467Z,0.00
2023-01-11T01:50:54.464Z,0.00
2023-01-11T01:51:54.463Z,0.00
2023-01-11T01:52:54.463Z,0.00
2023-01-11T01:53:54.461Z,0.00
2023-01-11T01:54:54.470Z,0.00
2023-01-11T01:55:54.444Z,0.00
2023-01-11T01:56:54.448Z,0.00
2023-01-11T01:57:54.455Z,0.00
2023-01-11T01:58:54.451Z,0.00
2023-01-11T01:59:54.429Z,0.00
2023-01-11T02:00:54.436Z,0.00
2023-01-11T02:01:54.471Z,0.00
2023-01-11T02:02:54.515Z,0.00
2023-01-11T02:03:54.422Z,0.00
2023-01-11T02:04:54.458Z,0.00
2023-01-11T02:05:54.410Z,0.00
2023-01-11T02:06:54.451Z,0.00
2023-01-11T02:07:54.408Z,0.00
2023-01-11T02:08:54.401Z,0.00
2023-01-11T02:09:54.392Z,0.00
2023-01-11T02:10:54.400Z,0.00
2023-01-11T02:11:54.387Z,0.00
2023-01-11T02:12:54.386Z,0.00
2023-01-11T02:13:54.369Z,0.00
2023-01-11T02:14:54.381Z,0.00
2023-01-11T02:15:54.401Z,0.00
2023-01-11T02:16:54.385Z,0.00
2023-01-11T02:17:54.365Z,0.00
2023-01-11T02:18:54.355Z,0.00
2023-01-11T02:19:54.349Z,0.00
2023-01-11T02:20:54.362Z,0.00
2023-01-11T02:21:54.364Z,0.00
2023-01-11T02:22:54.354Z,0.00
2023-01-11T02:23:54.334Z,0.00
2023-01-11T02:24:54.347Z,0.00
2023-01-11T02:25:54.340Z,0.00
2023-01-11T02:26:54.336Z,0.00
2023-01-11T02:27:54.313Z,0.00
2023-01-11T02:28:54.337Z,0.00
2023-01-11T02:29:54.324Z,0.00
2023-01-11T02:30:54.339Z,0.00
2023-01-11T02:31:54.315Z,0.00
2023-01-11T02:32:54.340Z,0.00
2023-01-11T02:33:54.304Z,0.00
2023-01-11T02:34:54.289Z,0.00
2023-01-11T02:35:54.295Z,0.00
2023-01-11T02:36:54.335Z,0.00
2023-01-11T02:37:54.283Z,0.00
2023-01-11T02:38:54.278Z,0.00
2023-01-11T02:39:54.278Z,0.00
2023-01-11T02:40:54.264Z,0.00
2023-01-11T02:41:54.278Z,0.00
2023-01-11T02:42:54.291Z,0.00
2023-01-11T02:43:54.264Z,0.00
2023-01-11T02:44:54.246Z,0.00
2023-01-11T02:45:54.254Z,0.00
2023-01-11T02:46:54.251Z,0.00
2023-01-11T02:47:54.252Z,0.00
2023-01-11T02:48:54.268Z,0.00
2023-01-11T02:49:54.232Z,0.00
2023-01-11T02:50:54.232Z,0.00
2023-01-11T02:51:54.225Z,0.00
2023-01-11T02:52:54.246Z,0.00
2023-01-11T02:53:54.233Z,0.00
2023-01-11T02:54:54.250Z,0.00
2023-01-11T02:55:54.219Z,0.00
2023-01-11T02:56:54.238Z,0.00
2023-01-11T02:57:54.213Z,0.00
2023-01-11T02:58:54.204Z,0.00
2023-01-11T02:59:54.228Z,0.00
2023-01-11T03:00:54.198Z,0.00
2023-01-11T03:01:54.241Z,0.00
2023-01-11T03:02:54.245Z,0.00
2023-01-11T03:03:54.195Z,0.00
2023-01-11T03:04:54.186Z,0.00
2023-01-11T03:05:54.182Z,0.00
2023-01-11T03:06:54.236Z,0.00
2023-01-11T03:07:54.176Z,0.00
2023-01-11T03:08:54.166Z,0.00
2023-01-11T03:09:54.202Z,0.00
2023-01-11T03:10:54.152Z,0.00
2023-01-11T03:11:54.161Z,0.00
2023-01-11T03:12:54.154Z,0.00
2023-01-11T03:13:54.141Z,0.00
2023-01-11T03:14:54.138Z,0.00
2023-01-11T03:15:54.222Z,0.00
2023-01-11T03:16:54.128Z,0.00
2023-01-11T03:17:54.121Z,0.00
2023-01-11T03:18:54.126Z,0.00
2023-01-11T03:19:54.164Z,0.00
2023-01-11T03:20:54.135Z,0.00
2023-01-11T03:21:54.127Z,0.00
2023-01-11T03:22:54.111Z,0.00
2023-01-11T03:23:54.104Z,0.00
2023-01-11T03:24:54.096Z,0.00
2023-01-11T03:25:54.105Z,0.00
2023-01-11T03:26:54.092Z,0.00
2023-01-11T03:27:54.107Z,0.00
2023-01-11T03:28:54.105Z,0.00
2023-01-11T03:29:54.079Z,0.00
2023-01-11T03:30:54.106Z,0.00
2023-01-11T03:31:54.111Z,0.00
2023-01-11T03:32:54.074Z,0.00
2023-01-11T03:33:54.075Z,0.00
2023-01-11T03:34:54.164Z,0.00
2023-01-11T03:35:54.155Z,0.00
2023-01-11T03:36:54.062Z,0.00
2023-01-11T03:37:54.085Z,0.00
2023-01-11T03:38:54.081Z,0.00
2023-01-11T03:39:54.060Z,0.00
2023-01-11T03:40:54.064Z,0.00
2023-01-11T03:41:54.051Z,0.00
2023-01-11T03:42:54.050Z,0.00
2023-01-11T03:43:54.071Z,0.00
2023-01-11T03:44:54.026Z,0.00
2023-01-11T03:45:54.036Z,0.00
2023-01-11T03:46:54.082Z,0.00
2023-01-11T03:47:54.030Z,0.00
2023-01-11T03:48:54.024Z,0.00
2023-01-11T03:49:54.020Z,0.00
2023-01-11T03:50:54.006Z,0.00
2023-01-11T03:51:54.014Z,0.00
2023-01-11T03:52:54.017Z,0.00
2023-01-11T03:53:53.994Z,0.00
2023-01-11T03:54:53.989Z,0.00
2023-01-11T03:55:53.998Z,0.00
2023-01-11T03:56:54.019Z,0.00
2023-01-11T03:57:53.993Z,0.00
2023-01-11T03:58:54.001Z,0.00
2023-01-11T03:59:54.012Z,0.00
2023-01-11T04:00:54.022Z,0.00
2023-01-11T04:01:54.034Z,0.00
2023-01-11T04:02:54.004Z,0.00
2023-01-11T04:03:54.027Z,0.00
2023-01-11T04:04:54.020Z,0.00
2023-01-11T04:05:53.970Z,0.00
2023-01-11T04:06:53.989Z,0.00
2023-01-11T04:07:53.967Z,0.00
2023-01-11T04:08:53.948Z,0.00
2023-01-11T04:09:54.012Z,0.00
2023-01-11T04:10:53.950Z,0.00
2023-01-11T04:11:53.935Z,0.00
2023-01-11T04:12:53.925Z,0.00
2023-01-11T04:13:53.948Z,0.00
2023-01-11T04:14:53.933Z,0.00
2023-01-11T04:15:53.961Z,0.00
2023-01-11T04:16:53.913Z,0.00
2023-01-11T04:17:53.900Z,0.00
2023-01-11T04:18:53.903Z,0.00
2023-01-11T04:19:53.897Z,0.00
2023-01-11T04:20:53.894Z,0.00
2023-01-11T04:21:53.915Z,0.00
2023-01-11T04:22:53.899Z,0.00
2023-01-11T04:23:53.883Z,0.00
2023-01-11T04:24:53.880Z,0.00
2023-01-11T04:25:53.913Z,0.00
2023-01-11T04:26:53.894Z,0.00
2023-01-11T04:27:53.889Z,0.00
2023-01-11T04:28:54.493Z,0.00
2023-01-11T04:29:53.874Z,0.00
2023-01-11T04:30:53.858Z,0.00
2023-01-11T04:31:53.912Z,0.00
2023-01-11T04:32:53.865Z,0.00
2023-01-11T04:33:53.868Z,0.00
2023-01-11T04:34:53.866Z,0.00
2023-01-11T04:35:53.839Z,0.00
2023-01-11T04:36:53.835Z,0.00
2023-01-11T04:37:53.832Z,0.00
2023-01-11T04:38:53.847Z,0.00
2023-01-11T04:39:53.842Z,0.00
2023-01-11T04:40:53.833Z,0.00
2023-01-11T04:41:53.810Z,0.00
2023-01-11T04:42:53.826Z,0.00
2023-01-11T04:43:53.829Z,0.00
2023-01-11T04:44:53.809Z,0.00
2023-01-11T04:45:53.888Z,0.00
2023-01-11T04:46:53.828Z,0.00
2023-01-11T04:47:53.798Z,0.00
2023-01-11T04:48:53.783Z,0.00
2023-01-11T04:49:53.812Z,0.00
2023-01-11T04:50:53.801Z,0.00
2023-01-11T04:51:53.784Z,0.00
2023-01-11T04:52:53.792Z,0.00
2023-01-11T04:53:53.787Z,0.00
2023-01-11T04:54:53.758Z,0.00
2023-01-11T04:55:53.804Z,0.00
2023-01-11T04:56:53.750Z,0.00
2023-01-11T04:57:53.797Z,0.00
2023-01-11T04:58:53.748Z,0.00
2023-01-11T04:59:53.756Z,0.00
2023-01-11T05:00:53.790Z,0.00
2023-01-11T05:01:53.773Z,0.00
2023-01-11T05:02:53.758Z,0.00
2023-01-11T05:03:53.756Z,0.00
2023-01-11T05:04:53.732Z,0.00
2023-01-11T05:05:53.730Z,0.00
2023-01-11T05:06:53.787Z,0.00
2023-01-11T05:07:53.752Z,0.00
2023-01-11T05:08:53.724Z,0.00
2023-01-11T05:09:53.718Z,0.00
2023-01-11T05:10:53.720Z,0.00
2023-01-11T05:11:53.712Z,0.00
2023-01-11T05:12:53.709Z,0.00
2023-01-11T05:13:53.724Z,0.00
2023-01-11T05:14:53.711Z,0.00
2023-01-11T05:15:53.686Z,0.00
2023-01-11T05:16:53.737Z,0.00
2023-01-11T05:17:53.678Z,0.00
2023-01-11T05:18:53.693Z,0.00
2023-01-11T05:19:53.668Z,0.00
2023-01-11T05:20:53.660Z,0.00
2023-01-11T05:21:53.676Z,0.00
2023-01-11T05:22:53.673Z,0.00
2023-01-11T05:23:53.673Z,0.00
2023-01-11T05:24:53.675Z,0.00
2023-01-11T05:25:53.687Z,0.00
2023-01-11T05:26:53.699Z,0.00
2023-01-11T05:27:53.649Z,0.00
2023-01-11T05:28:53.654Z,0.00
2023-01-11T05:29:53.630Z,0.00
2023-01-11T05:30:53.645Z,0.00
2023-01-11T05:31:53.705Z,0.00
2023-01-11T05:32:53.644Z,0.00
2023-01-11T05:33:53.639Z,0.00
2023-01-11T05:34:53.641Z,0.00
2023-01-11T05:35:54.549Z,0.00
2023-01-11T05:36:53.611Z,0.00
2023-01-11T05:37:53.645Z,0.00
2023-01-11T05:38:53.642Z,0.00
2023-01-11T05:39:53.608Z,0.00
2023-01-11T05:40:53.612Z,0.00
2023-01-11T05:41:53.611Z,0.00
2023-01-11T05:42:53.585Z,0.00
2023-01-11T05:43:53.598Z,0.00
2023-01-11T05:44:53.590Z,0.00
2023-01-11T05:45:53.669Z,0.00
2023-01-11T05:46:53.577Z,0.00
2023-01-11T05:47:53.590Z,0.00
2023-01-11T05:48:53.570Z,0.00
2023-01-11T05:49:53.562Z,0.00
2023-01-11T05:50:53.595Z,0.00
2023-01-11T05:51:53.571Z,0.00
2023-01-11T05:52:53.558Z,0.00
2023-01-11T05:53:53.563Z,0.00
2023-01-11T05:54:53.608Z,0.00
2023-01-11T05:55:53.593Z,0.00
2023-01-11T05:56:53.552Z,0.00
2023-01-11T05:57:53.545Z,0.00
2023-01-11T05:58:53.546Z,0.00
2023-01-11T05:59:53.531Z,0.00
2023-01-11T06:00:53.531Z,0.00
2023-01-11T06:01:53.564Z,0.00
2023-01-11T06:02:53.679Z,0.00
2023-01-11T06:03:53.533Z,0.00
2023-01-11T06:04:55.409Z,0.00
2023-01-11T06:05:53.542Z,0.00
2023-01-11T06:06:53.701Z,0.00
2023-01-11T06:07:53.530Z,0.00
2023-01-11T06:08:53.504Z,0.00
2023-01-11T06:09:53.516Z,0.00
2023-01-11T06:10:53.513Z,0.00
2023-01-11T06:11:53.507Z,0.00
2023-01-11T06:12:53.507Z,0.00
2023-01-11T06:13:53.541Z,0.00
2023-01-11T06:14:53.485Z,0.00
2023-01-11T06:15:53.486Z,0.00
2023-01-11T06:16:53.550Z,0.00
2023-01-11T06:17:53.491Z,0.00
2023-01-11T06:18:53.494Z,0.00
2023-01-11T06:19:53.470Z,0.00
2023-01-11T06:20:53.473Z,0.00
2023-01-11T06:21:53.474Z,0.00
2023-01-11T06:22:53.499Z,0.00
2023-01-11T06:23:53.478Z,0.00
2023-01-11T06:24:53.450Z,0.00
2023-01-11T06:25:53.482Z,0.00
2023-01-11T06:26:53.450Z,0.00
2023-01-11T06:27:53.436Z,0.00
2023-01-11T06:28:53.470Z,0.00
2023-01-11T06:29:53.431Z,0.00
2023-01-11T06:30:53.465Z,0.00
2023-01-11T06:31:53.414Z,0.00
2023-01-11T06:32:53.418Z,0.00
2023-01-11T06:33:53.437Z,0.00
2023-01-11T06:34:53.426Z,0.00
2023-01-11T06:35:53.391Z,0.00
2023-01-11T06:36:53.408Z,0.00
2023-01-11T06:37:53.386Z,0.00
2023-01-11T06:38:53.477Z,0.00
2023-01-11T06:39:53.432Z,0.00
2023-01-11T06:40:53.387Z,0.00
2023-01-11T06:41:53.402Z,0.00
2023-01-11T06:42:53.398Z,0.00
2023-01-11T06:43:53.415Z,0.00
2023-01-11T06:44:53.439Z,0.00
2023-01-11T06:45:53.419Z,0.00
2023-01-11T06:46:53.356Z,0.00
2023-01-11T06:47:53.388Z,0.00
2023-01-11T06:48:53.377Z,0.00
2023-01-11T06:49:53.385Z,0.00
2023-01-11T06:50:53.348Z,4.00
2023-01-11T06:51:53.429Z,4.00
2023-01-11T06:52:53.391Z,4.00
2023-01-11T06:53:53.360Z,0.00
2023-01-11T06:54:53.417Z,4.00
2023-01-11T06:55:54.259Z,4.00
2023-01-11T06:56:53.499Z,4.00
2023-01-11T06:57:53.333Z,0.00
2023-01-11T06:59:01.664Z,4.00
2023-01-11T06:59:53.325Z,4.00
2023-01-11T07:00:53.434Z,4.00
2023-01-11T07:01:53.833Z,4.00
2023-01-11T07:02:53.306Z,8.00
2023-01-11T07:03:53.360Z,8.00
2023-01-11T07:04:53.343Z,8.00
2023-01-11T07:05:53.389Z,8.00
2023-01-11T07:06:53.351Z,8.00
2023-01-11T07:07:55.084Z,12.00
2023-01-11T07:08:53.379Z,12.00
2023-01-11T07:09:53.341Z,16.00
2023-01-11T07:10:53.394Z,16.00
2023-01-11T07:11:53.294Z,16.00
2023-01-11T07:12:53.421Z,16.00
2023-01-11T07:13:53.306Z,20.00
2023-01-11T07:14:53.264Z,20.00
2023-01-11T07:15:53.331Z,24.00
2023-01-11T07:16:53.409Z,24.00
2023-01-11T07:17:53.270Z,24.00
2023-01-11T07:18:53.268Z,28.00
2023-01-11T07:19:53.253Z,28.00
2023-01-11T07:20:53.263Z,36.00
2023-01-11T07:21:53.264Z,36.00
2023-01-11T07:22:53.248Z,40.00
2023-01-11T07:23:53.234Z,40.00
2023-01-11T07:24:53.252Z,44.00
2023-01-11T07:25:53.268Z,48.00
2023-01-11T07:26:53.227Z,52.00
2023-01-11T07:27:53.229Z,52.00
2023-01-11T07:28:53.304Z,56.00
2023-01-11T07:29:53.239Z,60.00
2023-01-11T07:30:58.801Z,64.00
2023-01-11T07:31:53.216Z,68.00
2023-01-11T07:32:53.215Z,72.00
2023-01-11T07:33:53.196Z,76.00
2023-01-11T07:34:53.220Z,76.00
2023-01-11T07:35:53.195Z,84.00
2023-01-11T07:36:53.206Z,88.00
2023-01-11T07:37:53.194Z,88.00
2023-01-11T07:38:53.183Z,92.00
2023-01-11T07:39:53.177Z,100.00
2023-01-11T07:40:53.211Z,104.00
2023-01-11T07:41:53.208Z,108.00
2023-01-11T07:42:53.172Z,112.00
2023-01-11T07:43:53.169Z,116.00
2023-01-11T07:44:53.173Z,124.00
2023-01-11T07:45:53.482Z,128.00
2023-01-11T07:46:53.390Z,132.00
2023-01-11T07:47:53.148Z,132.00
2023-01-11T07:48:53.157Z,136.00
2023-01-11T07:49:53.156Z,140.00
2023-01-11T07:50:53.149Z,144.00
2023-01-11T07:51:53.139Z,140.00
2023-01-11T07:52:53.162Z,144.00
2023-01-11T07:53:53.142Z,152.00
2023-01-11T07:54:53.133Z,168.00
2023-01-11T07:55:53.137Z,176.00
2023-01-11T07:56:53.132Z,184.00
2023-01-11T07:57:53.161Z,184.00
2023-01-11T07:58:53.126Z,184.00
2023-01-11T07:59:53.146Z,172.00
2023-01-11T08:00:53.109Z,160.00
2023-01-11T08:01:53.125Z,156.00
2023-01-11T08:02:53.282Z,156.00
2023-01-11T08:03:53.139Z,156.00
2023-01-11T08:04:53.107Z,160.00
2023-01-11T08:05:53.093Z,172.00
2023-01-11T08:06:53.118Z,192.00
2023-01-11T08:07:53.082Z,192.00
2023-01-11T08:08:53.104Z,200.00
2023-01-11T08:09:53.085Z,212.00
2023-01-11T08:10:53.062Z,216.00
2023-01-11T08:11:53.081Z,204.00
2023-01-11T08:12:53.064Z,212.00
2023-01-11T08:13:53.092Z,196.00
2023-01-11T08:14:53.181Z,188.00
2023-01-11T08:15:53.089Z,192.00
2023-01-11T08:16:53.079Z,196.00
2023-01-11T08:17:53.061Z,204.00
2023-01-11T08:18:53.070Z,208.00
2023-01-11T08:19:53.065Z,220.00
2023-01-11T08:20:53.694Z,212.00
2023-01-11T08:21:53.048Z,204.00
2023-01-11T08:22:53.039Z,196.00
2023-01-11T08:23:53.045Z,192.00
2023-01-11T08:24:53.065Z,200.00
2023-01-11T08:25:53.032Z,196.00
2023-01-11T08:26:53.043Z,200.00
2023-01-11T08:27:53.022Z,212.00
2023-01-11T08:28:53.041Z,216.00
2023-01-11T08:29:53.027Z,224.00
2023-01-11T08:30:53.079Z,252.00
2023-01-11T08:31:53.000Z,268.00
2023-01-11T08:32:53.131Z,276.00
2023-01-11T08:33:53.015Z,288.00
2023-01-11T08:34:53.011Z,284.00
2023-01-11T08:35:52.994Z,300.00
2023-01-11T08:36:52.989Z,296.00
2023-01-11T08:37:52.986Z,328.00
2023-01-11T08:38:53.000Z,312.00
2023-01-11T08:39:52.986Z,332.00
2023-01-11T08:40:52.995Z,332.00
2023-01-11T08:41:52.968Z,328.00
2023-01-11T08:42:52.976Z,332.00
2023-01-11T08:43:52.975Z,336.00
2023-01-11T08:44:52.963Z,336.00
2023-01-11T08:45:52.964Z,340.00
2023-01-11T08:46:52.971Z,336.00
2023-01-11T08:47:52.973Z,320.00
2023-01-11T08:48:53.639Z,324.00
2023-01-11T08:49:52.951Z,348.00
2023-01-11T08:50:52.941Z,336.00
2023-01-11T08:51:52.972Z,332.00
2023-01-11T08:52:52.953Z,336.00
2023-01-11T08:53:52.942Z,376.00
2023-01-11T08:54:52.924Z,380.00
2023-01-11T08:55:52.939Z,408.00
2023-01-11T08:56:52.965Z,412.00
2023-01-11T08:57:52.915Z,376.00
2023-01-11T08:58:52.920Z,404.00
2023-01-11T08:59:52.927Z,364.00
2023-01-11T09:00:52.916Z,372.00
2023-01-11T09:01:53.010Z,352.00
2023-01-11T09:02:52.956Z,352.00
2023-01-11T09:03:52.915Z,352.00
2023-01-11T09:04:52.919Z,356.00
2023-01-11T09:05:52.885Z,328.00
2023-01-11T09:06:52.917Z,340.00
2023-01-11T09:07:52.921Z,356.00
2023-01-11T09:08:52.893Z,340.00
2023-01-11T09:09:52.881Z,340.00
2023-01-11T09:10:52.891Z,344.00
2023-01-11T09:11:52.865Z,364.00
2023-01-11T09:12:52.896Z,364.00
2023-01-11T09:13:52.856Z,372.00
2023-01-11T09:14:52.867Z,420.00
2023-01-11T09:15:52.894Z,456.00
2023-01-11T09:16:52.870Z,432.00
2023-01-11T09:17:52.855Z,456.00
2023-01-11T09:18:52.880Z,492.00
2023-01-11T09:19:52.901Z,516.00
2023-01-11T09:20:52.852Z,476.00
2023-01-11T09:21:52.852Z,460.00
2023-01-11T09:22:53.138Z,488.00
2023-01-11T09:23:52.849Z,528.00
2023-01-11T09:24:52.837Z,480.00
2023-01-11T09:25:52.869Z,456.00
2023-01-11T09:26:52.871Z,452.00
2023-01-11T09:27:52.827Z,464.00
2023-01-11T09:28:52.856Z,456.00
2023-01-11T09:29:52.856Z,440.00
2023-01-11T09:30:52.826Z,388.00
2023-01-11T09:31:52.818Z,392.00
2023-01-11T09:32:52.807Z,372.00
2023-01-11T09:33:52.819Z,388.00
2023-01-11T09:34:52.816Z,408.00
2023-01-11T09:35:52.816Z,408.00
2023-01-11T09:36:52.802Z,392.00
2023-01-11T09:37:52.797Z,372.00
2023-01-11T09:38:52.792Z,384.00
2023-01-11T09:39:52.809Z,368.00
2023-01-11T09:40:52.790Z,352.00
2023-01-11T09:41:52.853Z,428.00
2023-01-11T09:42:52.844Z,452.00
2023-01-11T09:43:52.785Z,444.00
2023-01-11T09:44:52.782Z,424.00
2023-01-11T09:45:53.642Z,432.00
2023-01-11T09:46:52.845Z,452.00
2023-01-11T09:47:52.780Z,476.00
2023-01-11T09:48:52.765Z,412.00
2023-01-11T09:49:52.763Z,420.00
2023-01-11T09:50:52.803Z,472.00
2023-01-11T09:51:52.788Z,468.00
2023-01-11T09:52:52.767Z,436.00
2023-01-11T09:53:52.751Z,440.00
2023-01-11T09:54:52.751Z,472.00
2023-01-11T09:55:52.739Z,468.00
2023-01-11T09:56:52.772Z,448.00
2023-01-11T09:57:52.751Z,472.00
2023-01-11T09:58:52.747Z,480.00
2023-01-11T09:59:52.771Z,464.00
2023-01-11T10:00:52.809Z,456.00
2023-01-11T10:01:52.731Z,440.00
2023-01-11T10:02:52.735Z,432.00
2023-01-11T10:03:52.710Z,432.00
2023-01-11T10:04:52.720Z,440.00
2023-01-11T10:05:52.718Z,436.00
2023-01-11T10:06:52.706Z,440.00
2023-01-11T10:07:52.716Z,460.00
2023-01-11T10:18:22.683Z,696.00
2023-01-11T10:18:31.766Z,692.00
2023-01-11T10:18:33.756Z,728.00
2023-01-11T10:18:37.856Z,708.00
2023-01-11T10:19:19.593Z,736.00
2023-01-11T10:19:52.696Z,776.00
2023-01-11T10:20:52.680Z,760.00
2023-01-11T10:21:52.676Z,748.00
2023-01-11T10:22:52.657Z,736.00
2023-01-11T10:23:52.657Z,696.00
2023-01-11T10:24:52.670Z,720.00
2023-01-11T10:25:52.648Z,688.00
2023-01-11T10:26:52.684Z,656.00
2023-01-11T10:27:52.652Z,612.00
2023-01-11T10:28:52.637Z,576.00
2023-01-11T10:29:52.659Z,568.00
2023-01-11T10:30:52.648Z,552.00
2023-01-11T10:31:52.722Z,564.00
2023-01-11T10:32:52.629Z,552.00
2023-01-11T10:33:52.637Z,564.00
2023-01-11T10:34:52.621Z,560.00
2023-01-11T10:35:52.632Z,540.00
2023-01-11T10:36:52.618Z,524.00
2023-01-11T10:37:52.624Z,544.00
2023-01-11T10:38:52.619Z,580.00
2023-01-11T10:39:52.605Z,572.00
2023-01-11T10:40:52.611Z,548.00
2023-01-11T10:41:52.620Z,500.00
2023-01-11T10:42:52.614Z,560.00
2023-01-11T10:43:52.605Z,580.00
2023-01-11T10:44:52.587Z,500.00
2023-01-11T10:45:52.778Z,552.00
2023-01-11T10:46:52.596Z,608.00
2023-01-11T10:47:52.577Z,584.00
2023-01-11T10:48:52.608Z,536.00
2023-01-11T10:49:52.621Z,552.00
2023-01-11T10:50:52.613Z,520.00
2023-01-11T10:51:52.623Z,544.00
2023-01-11T10:52:52.590Z,528.00
2023-01-11T10:53:53.133Z,508.00
2023-01-11T10:54:53.149Z,468.00
2023-01-11T10:55:52.630Z,476.00
2023-01-11T10:57:02.702Z,464.00
2023-01-11T10:58:00.280Z,476.00
2023-01-11T10:58:52.577Z,504.00
2023-01-11T10:59:52.704Z,520.00
2023-01-11T11:00:52.570Z,512.00
2023-01-11T11:01:52.725Z,520.00
2023-01-11T11:02:52.682Z,532.00
2023-01-11T11:03:52.557Z,504.00
2023-01-11T11:04:53.079Z,508.00
2023-01-11T11:05:52.775Z,472.00
2023-01-11T11:06:52.629Z,524.00
2023-01-11T11:07:52.555Z,456.00
2023-01-11T11:08:52.548Z,480.00
2023-01-11T11:09:52.535Z,448.00
2023-01-11T11:10:52.576Z,448.00
2023-01-11T11:11:52.541Z,532.00
2023-01-11T11:14:24.587Z,456.00
2023-01-11T11:15:24.567Z,424.00
2023-01-11T11:16:24.613Z,484.00
2023-01-11T11:17:24.558Z,544.00
2023-01-11T11:18:24.561Z,544.00
2023-01-11T11:19:24.579Z,508.00
2023-01-11T11:20:25.227Z,420.00
2023-01-11T11:21:24.565Z,368.00
2023-01-11T11:22:24.544Z,408.00
2023-01-11T11:23:24.538Z,384.00
2023-01-11T11:24:24.539Z,396.00
2023-01-11T11:25:24.525Z,436.00
2023-01-11T11:26:24.577Z,392.00
2023-01-11T11:27:24.542Z,460.00
2023-01-11T11:28:25.161Z,420.00
2023-01-11T11:29:24.530Z,388.00
2023-01-11T11:30:24.520Z,404.00
2023-01-11T11:31:24.557Z,376.00
2023-01-11T11:32:24.539Z,360.00
2023-01-11T11:33:24.525Z,472.00
2023-01-11T11:34:24.533Z,500.00
2023-01-11T11:35:24.516Z,472.00
2023-01-11T11:36:24.503Z,468.00
2023-01-11T11:37:24.524Z,448.00
2023-01-11T11:38:24.497Z,440.00
2023-01-11T11:39:24.493Z,452.00
2023-01-11T11:40:24.505Z,464.00
2023-01-11T11:41:24.505Z,532.00
2023-01-11T11:42:24.568Z,548.00
2023-01-11T11:43:24.477Z,412.00
2023-01-11T11:44:24.725Z,420.00
2023-01-11T11:45:25.878Z,488.00
2023-01-11T11:46:24.608Z,476.00
2023-01-11T11:47:24.479Z,468.00
2023-01-11T11:48:24.465Z,524.00
2023-01-11T11:49:24.465Z,488.00
2023-01-11T11:50:43.310Z,480.00
2023-01-11T11:51:24.931Z,508.00
2023-01-11T11:52:24.457Z,484.00
2023-01-11T11:53:24.453Z,516.00
2023-01-11T11:54:24.491Z,588.00
2023-01-11T11:55:24.457Z,564.00
2023-01-11T11:56:24.456Z,616.00
2023-01-11T11:57:25.139Z,608.00
2023-01-11T11:58:24.459Z,532.00
2023-01-11T11:59:24.447Z,536.00
2023-01-11T12:00:24.449Z,536.00
2023-01-11T12:01:24.446Z,556.00
2023-01-11T12:02:24.504Z,548.00
2023-01-11T12:03:25.724Z,548.00
2023-01-11T12:04:24.520Z,536.00
2023-01-11T12:05:24.517Z,584.00
2023-01-11T12:06:24.433Z,592.00
2023-01-11T12:07:24.436Z,612.00
2023-01-11T12:08:24.561Z,608.00
2023-01-11T12:09:24.441Z,560.00
2023-01-11T12:10:24.463Z,528.00
2023-01-11T12:11:24.430Z,444.00
2023-01-11T12:12:27.845Z,460.00
2023-01-11T12:13:24.404Z,476.00
2023-01-11T12:14:24.388Z,464.00
2023-01-11T12:15:24.386Z,520.00
2023-01-11T12:27:55.122Z,400.00
2023-01-11T12:28:55.503Z,416.00
2023-01-11T12:29:55.491Z,388.00
2023-01-11T12:31:55.493Z,400.00
2023-01-11T12:32:54.838Z,360.00
2023-01-11T12:33:54.776Z,348.00
2023-01-11T12:34:54.820Z,336.00
2023-01-11T12:35:54.895Z,336.00
2023-01-11T12:36:56.515Z,316.00
2023-01-11T12:37:54.856Z,316.00
2023-01-11T12:38:54.831Z,308.00
2023-01-11T12:39:54.808Z,288.00
2023-01-11T12:40:54.836Z,268.00
2023-01-11T12:41:54.820Z,296.00
2023-01-11T12:42:55.813Z,256.00
2023-01-11T12:43:55.997Z,244.00
2023-01-11T12:44:56.038Z,248.00
2023-01-11T12:45:55.742Z,252.00
2023-01-11T12:46:55.523Z,268.00
2023-01-11T12:47:55.508Z,328.00
2023-01-11T12:48:54.826Z,336.00
2023-01-11T12:49:55.749Z,368.00
2023-01-11T12:50:55.505Z,364.00
2023-01-11T12:51:54.817Z,368.00
2023-01-11T12:52:54.899Z,332.00
2023-01-11T12:53:54.789Z,304.00
2023-01-11T12:54:54.756Z,332.00
2023-01-11T12:55:54.921Z,268.00
2023-01-11T12:56:55.506Z,228.00
2023-01-11T12:57:54.732Z,260.00
2023-01-11T12:58:56.500Z,236.00
2023-01-11T12:59:54.809Z,232.00
2023-01-11T13:00:56.581Z,240.00
2023-01-11T13:01:54.779Z,212.00
2023-01-11T13:02:54.777Z,196.00
2023-01-11T13:03:55.609Z,244.00
2023-01-11T13:04:55.595Z,188.00
2023-01-11T13:05:54.822Z,164.00
2023-01-11T13:06:54.682Z,164.00
2023-01-11T13:07:54.674Z,192.00
2023-01-11T13:08:54.671Z,172.00
2023-01-11T13:09:54.674Z,140.00
2023-01-11T13:10:54.681Z,140.00
2023-01-11T13:11:54.780Z,136.00
2023-01-11T13:12:54.725Z,136.00
2023-01-11T13:13:54.676Z,144.00
2023-01-11T13:14:56.011Z,152.00
2023-01-11T13:15:54.687Z,132.00
2023-01-11T13:16:54.727Z,144.00
2023-01-11T13:17:54.670Z,172.00
2023-01-11T13:18:54.648Z,180.00
2023-01-11T13:19:55.507Z,176.00
2023-01-11T13:21:01.080Z,176.00
2023-01-11T13:21:54.693Z,172.00
2023-01-11T13:22:54.757Z,176.00